Time;durP1;ratioP1;P1;durP2;ratioP2;P2;SDS_P1;SDS_P2;PMS_P1;PMS_P2;Temp;Humidity;BMP_temperature;BMP_pressure;BME280_temperature;BME280_humidity;BME280_pressure;Samples;Min_cycle;Max_cycle;Signal;HPM_P1;HPM_P2
2022/12/05 00:01:41;;;;;;;30.10;18.50;;;;;;;4.07;100.00;102078.09;5058962;28;20539;-76
2022/12/05 00:04:11;;;;;;;31.77;19.63;;;;;;;4.08;100.00;102073.78;5059133;28;20040;-76
2022/12/05 00:06:40;;;;;;;37.38;19.92;;;;;;;4.10;100.00;102085.19;5034744;28;20557;-76
2022/12/05 00:09:09;;;;;;;33.83;20.08;;;;;;;4.11;100.00;102073.94;5040298;28;20033;-77
2022/12/05 00:11:38;;;;;;;33.72;20.45;;;;;;;4.12;100.00;102072.22;5047674;28;20497;-76
2022/12/05 00:14:07;;;;;;;37.00;21.10;;;;;;;4.13;100.00;102080.13;5048933;28;20037;-76
2022/12/05 00:16:37;;;;;;;38.00;21.38;;;;;;;4.15;100.00;102075.88;5063448;28;20520;-76
2022/12/05 00:19:06;;;;;;;32.05;19.90;;;;;;;4.15;100.00;102075.88;5040239;28;20052;-76
2022/12/05 00:21:35;;;;;;;35.30;19.83;;;;;;;4.16;100.00;102068.94;5015406;28;20551;-76
2022/12/05 00:24:06;;;;;;;32.67;19.95;;;;;;;4.17;100.00;102058.56;5057107;28;20044;-76
2022/12/05 00:26:34;;;;;;;35.40;19.88;;;;;;;4.19;100.00;102066.47;5045577;28;20049;-75
2022/12/05 00:29:01;;;;;;;33.17;19.65;;;;;;;4.18;100.00;102060.38;5036394;28;20048;-76
2022/12/05 00:31:29;;;;;;;30.35;17.67;;;;;;;4.20;100.00;102066.56;5047226;28;20052;-75
2022/12/05 00:34:00;;;;;;;34.67;18.73;;;;;;;4.21;100.00;102057.91;5040026;28;20048;-76
2022/12/05 00:36:30;;;;;;;29.77;16.15;;;;;;;4.24;100.00;102062.38;5033682;28;20044;-75
2022/12/05 00:39:00;;;;;;;24.70;15.65;;;;;;;4.27;100.00;102068.66;5024084;28;20421;-77
2022/12/05 00:41:29;;;;;;;22.25;14.35;;;;;;;4.30;100.00;102066.16;5044161;28;20048;-75
2022/12/05 00:43:59;;;;;;;21.88;13.00;;;;;;;4.33;100.00;102068.06;5056935;28;20053;-76
2022/12/05 00:46:28;;;;;;;19.05;13.27;;;;;;;4.35;100.00;102063.81;5066349;28;20385;-77
2022/12/05 00:48:58;;;;;;;20.48;12.77;;;;;;;4.38;100.00;102050.88;5050573;28;20040;-75
2022/12/05 00:51:31;;;;;;;20.40;13.05;;;;;;;4.41;100.00;102065.81;5035200;28;20041;-74
2022/12/05 00:54:04;;;;;;;18.50;12.93;;;;;;;4.43;100.00;102057.22;5054643;28;20067;-75
2022/12/05 00:56:32;;;;;;;17.30;12.40;;;;;;;4.44;100.00;102055.50;5047545;28;20047;-77
2022/12/05 00:59:00;;;;;;;16.80;12.25;;;;;;;4.47;100.00;102055.66;5045751;28;20041;-76
2022/12/05 01:01:32;;;;;;;18.92;11.93;;;;;;;4.49;100.00;102060.13;5063853;28;20049;-77
2022/12/05 01:04:04;;;;;;;16.73;10.85;;;;;;;4.52;100.00;102063.69;5062884;28;20104;-77
2022/12/05 01:06:34;;;;;;;14.38;11.02;;;;;;;4.53;100.00;102058.53;5049027;28;20056;-76
2022/12/05 01:09:02;;;;;;;17.65;11.63;;;;;;;4.55;100.00;102066.47;5035073;28;20047;-77
2022/12/05 01:11:30;;;;;;;18.65;12.20;;;;;;;4.57;100.00;102068.31;5045636;28;20055;-76
2022/12/05 01:14:04;;;;;;;17.67;12.32;;;;;;;4.58;100.00;102064.88;5049380;28;20055;-76
2022/12/05 01:16:36;;;;;;;18.38;11.73;;;;;;;4.58;100.00;102059.66;5052850;28;20520;-76
2022/12/05 01:19:12;;;;;;;16.17;10.95;;;;;;;4.60;100.00;102062.34;5053807;28;20413;-77
2022/12/05 01:21:40;;;;;;;14.27;10.43;;;;;;;4.61;100.00;102062.44;5057722;28;20048;-77
2022/12/05 01:24:10;;;;;;;14.05;10.10;;;;;;;4.62;100.00;102064.19;5041420;28;20040;-76
2022/12/05 01:26:37;;;;;;;14.05;9.45;;;;;;;4.62;100.00;102085.09;5057286;28;20767;-76
2022/12/05 01:29:04;;;;;;;15.43;10.20;;;;;;;4.63;100.00;102081.69;5053462;28;20052;-76
2022/12/05 01:31:35;;;;;;;14.32;9.82;;;;;;;4.64;100.00;102079.94;5066504;28;20055;-76
2022/12/05 01:34:06;;;;;;;14.18;9.13;;;;;;;4.64;100.00;102069.50;5069318;28;20040;-76
2022/12/05 01:36:34;;;;;;;14.63;9.90;;;;;;;4.64;100.00;102073.00;5042527;28;20052;-76
2022/12/05 01:39:02;;;;;;;18.70;10.98;;;;;;;4.64;100.00;102080.84;5039761;28;20037;-77
2022/12/05 01:41:33;;;;;;;16.02;10.75;;;;;;;4.62;100.00;102069.44;5058785;28;20047;-77
2022/12/05 01:44:11;;;;;;;21.38;11.60;;;;;;;4.62;100.00;102079.88;5054155;28;20040;-76
2022/12/05 01:46:47;;;;;;;14.98;10.40;;;;;;;4.61;100.00;102070.25;5062004;28;20056;-75
2022/12/05 01:49:16;;;;;;;15.05;9.93;;;;;;;4.59;100.00;102071.00;5057117;28;20041;-76
2022/12/05 01:51:47;;;;;;;14.63;10.63;;;;;;;4.57;100.00;102068.31;5064230;28;20064;-75
2022/12/05 01:54:15;;;;;;;;;;;;;;;4.57;100.00;102070.03;5040972;28;20047;-75
2022/12/05 01:56:47;;;;;;;14.95;8.73;;;;;;;4.55;100.00;102074.28;5044795;28;21159;-75
2022/12/05 01:59:16;;;;;;;14.85;9.15;;;;;;;4.54;100.00;102073.41;5054695;28;20048;-77
2022/12/05 02:01:44;;;;;;;15.90;9.50;;;;;;;4.54;100.00;102069.88;5066503;28;20044;-77
2022/12/05 02:04:12;;;;;;;12.50;8.70;;;;;;;4.53;100.00;102068.09;5051429;28;20390;-77
2022/12/05 02:06:39;;;;;;;13.88;9.50;;;;;;;4.52;100.00;102066.28;5064931;28;20055;-77
2022/12/05 02:09:07;;;;;;;13.07;8.55;;;;;;;4.51;100.00;102069.75;5046039;28;20044;-77
2022/12/05 02:11:50;;;;;;;11.93;8.85;;;;;;;4.51;100.00;102072.34;5042623;28;20071;-77
2022/12/05 02:14:54;;;;;;;10.40;8.15;;;;;;;4.50;100.00;102063.63;5054817;28;20059;-77
2022/12/05 02:18:06;;;;;;;13.75;8.70;;;;;;;4.50;100.00;102055.81;5058668;28;20063;-76
2022/12/05 02:20:48;;;;;;;11.00;8.57;;;;;;;4.51;100.00;102054.09;5039396;28;20068;-77
2022/12/05 02:23:48;;;;;;;9.52;7.65;;;;;;;4.51;100.00;102059.31;5068973;28;20040;-77
2022/12/05 02:26:32;;;;;;;14.65;9.10;;;;;;;4.51;100.00;102054.97;5036840;28;20522;-76
2022/12/05 02:29:18;;;;;;;12.57;8.38;;;;;;;4.52;100.00;102055.84;5053849;28;20045;-77
2022/12/05 02:32:27;;;;;;;9.02;7.45;;;;;;;4.52;100.00;102055.84;5062993;28;20052;-77
2022/12/05 02:35:07;;;;;;;10.50;8.07;;;;;;;4.48;100.00;102045.28;5044301;28;20043;-77
2022/12/05 02:37:58;;;;;;;13.35;7.15;;;;;;;4.48;100.00;102044.41;5057370;28;20056;-76
2022/12/05 02:40:53;;;;;;;10.45;7.47;;;;;;;4.49;100.00;102057.50;5043379;28;20032;-76
2022/12/05 02:44:07;;;;;;;12.23;8.05;;;;;;;4.48;100.00;102047.91;5040816;28;20057;-76
2022/12/05 02:46:38;;;;;;;13.98;8.27;;;;;;;4.48;100.00;102054.84;4988786;28;20391;-76
2022/12/05 02:49:10;;;;;;;13.57;7.55;;;;;;;4.48;100.00;102060.06;5040599;28;20045;-76
2022/12/05 02:51:44;;;;;;;12.85;7.72;;;;;;;4.48;100.00;102057.47;5046445;28;20044;-76
2022/12/05 02:54:16;;;;;;;10.75;8.07;;;;;;;4.48;100.00;102065.28;5059177;28;20071;-76
2022/12/05 02:56:46;;;;;;;10.77;8.07;;;;;;;4.49;100.00;102054.91;5010499;28;20053;-76
2022/12/05 02:59:13;;;;;;;9.38;7.50;;;;;;;4.50;100.00;102068.88;5030225;28;20045;-76
2022/12/05 03:01:49;;;;;;;8.93;7.68;;;;;;;4.48;100.00;102060.94;5046691;28;20052;-75
2022/12/05 03:04:20;;;;;;;9.95;7.18;;;;;;;4.48;100.00;102058.34;5044352;28;20379;-76
2022/12/05 03:06:56;;;;;;;10.52;7.78;;;;;;;4.50;100.00;102058.41;5063015;28;20053;-76
2022/12/05 03:09:34;;;;;;;11.65;8.18;;;;;;;4.51;100.00;102059.31;5061888;28;20642;-76
2022/12/05 03:12:15;;;;;;;12.23;7.85;;;;;;;4.48;100.00;102066.16;5018370;28;20052;-76
2022/12/05 03:14:57;;;;;;;15.27;8.40;;;;;;;4.48;100.00;102067.91;5058388;28;20502;-76
2022/12/05 03:17:34;;;;;;;12.35;7.35;;;;;;;4.46;100.00;102065.22;5043215;28;20044;-76
2022/12/05 03:20:31;;;;;;;10.98;8.02;;;;;;;4.45;100.00;102060.78;5041861;28;20037;-76
2022/12/05 03:23:14;;;;;;;11.13;8.18;;;;;;;4.44;100.00;102059.03;5040296;28;20064;-76
2022/12/05 03:26:10;;;;;;;12.98;8.73;;;;;;;4.44;100.00;102055.50;5039658;28;20414;-76
2022/12/05 03:28:58;;;;;;;12.60;8.52;;;;;;;4.43;100.00;102061.56;5016043;28;20037;-76
2022/12/05 03:31:41;;;;;;;13.07;8.30;;;;;;;4.42;100.00;102059.75;5029997;28;20056;-76
2022/12/05 03:34:14;;;;;;;14.70;8.82;;;;;;;4.42;100.00;102059.75;5042820;28;20552;-76
2022/12/05 03:36:47;;;;;;;14.93;8.40;;;;;;;4.41;100.00;102057.97;5048319;28;20056;-76
2022/12/05 03:39:28;;;;;;;12.40;9.32;;;;;;;4.41;100.00;102053.66;5045447;28;20048;-76
2022/12/05 03:42:08;;;;;;;11.02;8.60;;;;;;;4.40;100.00;102056.19;5039715;28;20048;-76
2022/12/05 03:44:58;;;;;;;13.50;8.90;;;;;;;4.40;100.00;102056.19;5016966;28;20057;-76
2022/12/05 03:47:31;;;;;;;13.23;8.88;;;;;;;4.39;100.00;102057.03;5040859;28;20045;-76
2022/12/05 03:50:05;;;;;;;16.23;9.75;;;;;;;4.39;100.00;102062.25;5043126;28;20041;-76
2022/12/05 03:52:41;;;;;;;13.00;8.55;;;;;;;4.39;100.00;102059.63;5063809;28;20504;-76
2022/12/05 03:55:35;;;;;;;13.45;8.48;;;;;;;4.39;100.00;102060.50;5059043;28;20045;-76
2022/12/05 03:58:35;;;;;;;10.93;8.13;;;;;;;4.40;100.00;102053.56;5045466;28;20044;-76
2022/12/05 04:01:05;;;;;;;13.50;7.47;;;;;;;4.38;100.00;102060.44;5023239;28;20052;-76
2022/12/05 04:03:41;;;;;;;10.40;7.32;;;;;;;4.39;100.00;102046.56;5047576;28;20060;-76
2022/12/05 04:06:15;;;;;;;14.82;8.43;;;;;;;4.39;100.00;102047.47;5059513;28;20049;-76
2022/12/05 04:09:06;;;;;;;15.02;8.50;;;;;;;4.40;100.00;102054.44;5040596;28;20052;-76
2022/12/05 04:11:45;;;;;;;12.35;7.97;;;;;;;4.41;100.00;102069.31;5048427;28;20055;-76
2022/12/05 04:14:18;;;;;;;13.95;7.95;;;;;;;4.42;100.00;102050.22;5016246;28;20055;-76
2022/12/05 04:17:04;;;;;;;10.60;7.70;;;;;;;4.43;100.00;102061.56;5040462;28;20045;-76
2022/12/05 04:22:39;;;;;;;14.85;8.48;;;;;;;4.44;100.00;102066.84;5054897;28;20060;-76
2022/12/05 04:28:27;;;;;;;15.27;8.55;;;;;;;4.45;100.00;102065.13;5057916;28;20044;-76
2022/12/05 04:31:13;;;;;;;13.93;8.00;;;;;;;4.45;100.00;102070.34;5015997;28;20049;-76
2022/12/05 04:34:06;;;;;;;12.30;7.72;;;;;;;4.44;100.00;102066.84;5058213;28;20676;-76
2022/12/05 04:36:58;;;;;;;9.70;7.90;;;;;;;4.45;100.00;102075.56;5049513;28;20060;-76
2022/12/05 04:39:36;;;;;;;16.95;8.02;;;;;;;4.45;100.00;102080.78;5046978;28;20041;-76
2022/12/05 04:42:08;;;;;;;15.68;8.27;;;;;;;4.44;100.00;102066.84;5041210;28;20409;-76
2022/12/05 04:44:42;;;;;;;13.20;7.93;;;;;;;4.43;100.00;102070.28;5017883;28;20052;-76
2022/12/05 04:47:13;;;;;;;11.98;7.65;;;;;;;4.44;100.00;102081.59;5024779;28;20418;-76
2022/12/05 04:49:43;;;;;;;12.70;7.80;;;;;;;4.43;100.00;102074.59;5018058;28;20033;-76
2022/12/05 04:52:16;;;;;;;19.40;8.80;;;;;;;4.43;100.00;102072.00;5022981;28;20053;-76
2022/12/05 04:54:53;;;;;;;12.38;8.32;;;;;;;4.44;100.00;102090.34;5040690;28;20521;-76
2022/12/05 04:57:30;;;;;;;11.40;7.50;;;;;;;4.43;100.00;102085.03;5024464;28;20056;-76
2022/12/05 04:59:57;;;;;;;10.93;8.23;;;;;;;4.42;100.00;102076.34;5015397;28;20402;-76
2022/12/05 05:02:36;;;;;;;12.65;7.65;;;;;;;4.43;100.00;102077.22;4999782;28;20053;-76
2022/12/05 05:05:08;;;;;;;10.95;8.43;;;;;;;4.43;100.00;102087.66;4986325;28;20046;-76
2022/12/05 05:07:49;;;;;;;12.88;7.97;;;;;;;4.43;100.00;102078.09;5020171;28;20042;-76
2022/12/05 05:10:25;;;;;;;12.38;8.52;;;;;;;4.42;100.00;102076.34;5027135;28;20049;-76
2022/12/05 05:12:53;;;;;;;11.82;8.05;;;;;;;4.42;100.00;102078.94;5035255;28;20050;-77
2022/12/05 05:15:20;;;;;;;12.98;8.23;;;;;;;4.42;100.00;102067.59;4985900;28;20058;-77
2022/12/05 05:17:48;;;;;;;11.00;7.78;;;;;;;4.42;100.00;102078.03;5018514;28;20046;-76
2022/12/05 05:20:25;;;;;;;14.00;7.97;;;;;;;4.41;100.00;102074.53;5017307;28;20052;-77
2022/12/05 05:22:55;;;;;;;13.77;7.82;;;;;;;4.41;100.00;102082.34;5013007;28;20061;-77
2022/12/05 05:25:24;;;;;;;12.50;7.40;;;;;;;4.41;100.00;102073.63;5017954;28;20844;-77
2022/12/05 05:27:54;;;;;;;10.38;7.75;;;;;;;4.39;100.00;102078.78;5022729;28;20056;-77
2022/12/05 05:30:23;;;;;;;11.23;6.73;;;;;;;4.40;100.00;102075.34;5022898;28;20056;-76
2022/12/05 05:32:51;;;;;;;11.82;7.57;;;;;;;4.41;100.00;102078.84;4990866;28;20060;-75
2022/12/05 05:35:19;;;;;;;13.68;8.65;;;;;;;4.41;100.00;102078.84;5014436;28;20037;-76
2022/12/05 05:37:46;;;;;;;11.77;7.18;;;;;;;4.42;100.00;102085.84;5026813;28;20053;-76
2022/12/05 05:40:14;;;;;;;11.77;7.13;;;;;;;4.41;100.00;102084.09;5017625;28;20077;-76
2022/12/05 05:42:47;;;;;;;13.90;7.60;;;;;;;4.42;100.00;102088.47;5016862;28;20037;-76
2022/12/05 05:45:15;;;;;;;14.75;9.00;;;;;;;4.41;100.00;102084.97;5026632;28;20046;-76
2022/12/05 05:47:43;;;;;;;12.77;7.68;;;;;;;4.42;100.00;102084.16;5018279;28;20059;-75
2022/12/05 05:50:11;;;;;;;13.75;7.78;;;;;;;4.43;100.00;102079.81;5048323;28;20044;-75
2022/12/05 05:52:47;;;;;;;13.45;7.38;;;;;;;4.43;100.00;102085.94;5032407;28;20063;-74
2022/12/05 05:55:16;;;;;;;12.13;7.57;;;;;;;4.44;100.00;102089.44;5057600;28;20045;-76
2022/12/05 05:57:44;;;;;;;12.05;7.85;;;;;;;4.43;100.00;102087.66;5040926;28;20410;-75
2022/12/05 06:00:12;;;;;;;13.18;8.00;;;;;;;4.43;100.00;102082.44;5041947;28;20036;-75
2022/12/05 06:02:40;;;;;;;14.90;8.32;;;;;;;4.42;100.00;102081.56;5019619;28;20044;-75
2022/12/05 06:05:08;;;;;;;13.18;7.82;;;;;;;4.43;100.00;102072.00;5057337;28;20084;-75
2022/12/05 06:07:35;;;;;;;12.93;8.25;;;;;;;4.43;100.00;102072.00;5035770;28;20056;-77
2022/12/05 06:10:03;;;;;;;11.27;7.82;;;;;;;4.42;100.00;102076.34;5057042;28;20047;-77
2022/12/05 06:12:31;;;;;;;12.77;7.70;;;;;;;4.44;100.00;102076.38;5064466;28;20052;-76
2022/12/05 06:14:58;;;;;;;21.83;8.38;;;;;;;4.42;100.00;102078.94;5014950;28;20052;-78
2022/12/05 06:17:26;;;;;;;14.32;8.30;;;;;;;4.43;100.00;102087.66;5040145;28;20079;-77
2022/12/05 06:19:54;;;;;;;17.35;8.48;;;;;;;4.44;100.00;102084.22;5069106;28;20041;-76
2022/12/05 06:22:22;;;;;;;17.20;9.52;;;;;;;4.44;100.00;102086.81;5064913;28;20036;-77
2022/12/05 06:24:49;;;;;;;17.48;9.13;;;;;;;4.44;100.00;102085.13;5034508;28;20068;-78
2022/12/05 06:27:17;;;;;;;15.60;9.07;;;;;;;4.44;100.00;102074.69;5022958;28;20052;-77
2022/12/05 06:29:44;;;;;;;16.63;9.15;;;;;;;4.45;100.00;102075.56;5067205;28;20071;-79
2022/12/05 06:32:11;;;;;;;17.85;9.52;;;;;;;4.44;100.00;102085.13;5045054;28;20039;-78
2022/12/05 06:34:39;;;;;;;14.63;8.95;;;;;;;4.43;100.00;102085.03;5042112;28;20024;-78
2022/12/05 06:37:06;;;;;;;19.42;9.38;;;;;;;4.42;100.00;102089.38;5046345;28;20044;-78
2022/12/05 06:39:34;;;;;;;17.55;9.60;;;;;;;4.42;100.00;102086.78;5028955;28;20063;-79
2022/12/05 06:42:01;;;;;;;15.73;8.93;;;;;;;4.43;100.00;102085.03;5053700;28;20032;-78
2022/12/05 06:44:28;;;;;;;19.83;9.90;;;;;;;4.42;100.00;102084.16;5063383;28;20048;-78
2022/12/05 06:46:56;;;;;;;18.80;10.07;;;;;;;4.41;100.00;102090.19;5062392;28;20513;-79
2022/12/05 06:49:31;;;;;;;16.02;9.13;;;;;;;4.42;100.00;102085.84;5041662;28;20044;-78
2022/12/05 06:52:04;;;;;;;19.92;8.40;;;;;;;4.41;100.00;102090.19;5043136;28;20044;-79
2022/12/05 06:54:34;;;;;;;19.30;8.82;;;;;;;4.41;100.00;102092.78;5046016;28;20048;-80
2022/12/05 06:57:02;;;;;;;14.52;8.20;;;;;;;4.41;100.00;102100.63;5054735;28;20052;-78
2022/12/05 06:59:29;;;;;;;18.23;8.77;;;;;;;4.43;100.00;102096.38;5022874;28;20055;-79
2022/12/05 07:01:56;;;;;;;18.63;9.20;;;;;;;4.43;100.00;102096.38;5039119;28;20043;-79
2022/12/05 07:04:24;;;;;;;15.77;8.70;;;;;;;4.44;100.00;102094.66;5032325;28;20049;-78
2022/12/05 07:06:53;;;;;;;18.42;8.43;;;;;;;4.44;100.00;102090.34;5032885;28;20052;-78
2022/12/05 07:09:44;;;;;;;19.05;9.35;;;;;;;4.45;100.00;102091.22;5050355;28;20543;-77
2022/12/05 07:12:16;;;;;;;13.27;8.68;;;;;;;4.46;100.00;102082.56;5031756;28;21160;-77
2022/12/05 07:14:44;;;;;;;18.42;9.80;;;;;;;4.46;100.00;102082.56;5033240;28;20138;-79
2022/12/05 07:17:19;;;;;;;23.23;8.38;;;;;;;4.47;100.00;102084.38;5060272;28;20044;-79
2022/12/05 07:19:51;;;;;;;26.33;8.40;;;;;;;4.47;100.00;102090.47;5050019;28;20044;-77
2022/12/05 07:22:20;;;;;;;14.70;8.90;;;;;;;4.48;100.00;102083.56;5034896;28;20059;-78
2022/12/05 07:24:50;;;;;;;15.63;9.15;;;;;;;4.48;100.00;102080.94;5063772;28;20041;-78
2022/12/05 07:27:17;;;;;;;17.10;8.83;;;;;;;4.50;100.00;102087.13;5057410;28;20047;-78
2022/12/05 07:29:53;;;;;;;16.42;7.78;;;;;;;4.51;100.00;102081.06;5071688;28;20694;-79
2022/12/05 07:32:20;;;;;;;12.30;8.57;;;;;;;4.50;100.00;102079.31;5055188;28;20047;-78
2022/12/05 07:34:48;;;;;;;16.80;8.68;;;;;;;4.50;100.00;102071.47;5033154;28;20049;-79
2022/12/05 07:37:21;;;;;;;13.88;8.32;;;;;;;4.51;100.00;102073.25;5029080;28;20044;-78
2022/12/05 07:39:49;;;;;;;17.42;8.40;;;;;;;4.51;100.00;102069.75;5045747;28;20055;-78
2022/12/05 07:42:16;;;;;;;15.48;8.63;;;;;;;4.52;100.00;102071.53;5046980;28;20039;-78
2022/12/05 07:44:44;;;;;;;15.98;8.00;;;;;;;4.52;100.00;102076.75;5062172;28;20044;-78
2022/12/05 07:47:13;;;;;;;12.68;8.32;;;;;;;4.52;100.00;102072.44;5054600;28;20394;-79
2022/12/05 07:49:40;;;;;;;14.00;8.00;;;;;;;4.53;100.00;102074.22;5043663;28;20049;-78
2022/12/05 07:52:08;;;;;;;10.80;7.13;;;;;;;4.51;100.00;102068.03;5012721;28;20405;-78
2022/12/05 07:54:36;;;;;;;13.23;7.80;;;;;;;4.52;100.00;102079.34;5048849;28;20048;-78
2022/12/05 07:57:06;;;;;;;12.73;8.13;;;;;;;4.51;100.00;102085.41;5069124;28;20036;-79
2022/12/05 07:59:33;;;;;;;13.48;8.02;;;;;;;4.52;100.00;102098.53;5043833;28;20052;-79
2022/12/05 08:02:00;;;;;;;13.52;7.53;;;;;;;4.52;100.00;102095.00;5071367;28;20051;-79
2022/12/05 08:04:30;;;;;;;13.82;8.60;;;;;;;4.52;100.00;102090.72;5043498;28;20053;-78
2022/12/05 08:06:57;;;;;;;13.65;7.95;;;;;;;4.53;100.00;102089.88;5041116;28;20044;-79
2022/12/05 08:09:24;;;;;;;16.38;8.20;;;;;;;4.53;100.00;102092.47;5043946;28;20041;-79
2022/12/05 08:11:52;;;;;;;14.02;7.90;;;;;;;4.52;100.00;102088.09;5046041;28;20059;-79
2022/12/05 08:14:19;;;;;;;13.00;8.02;;;;;;;4.52;100.00;102082.88;5065583;28;20055;-78
2022/12/05 08:16:47;;;;;;;14.07;8.10;;;;;;;4.54;100.00;102080.31;5032993;28;20806;-80
2022/12/05 08:19:15;;;;;;;12.00;7.28;;;;;;;4.55;100.00;102075.16;5053520;28;20040;-79
2022/12/05 08:21:43;;;;;;;12.35;7.55;;;;;;;4.54;100.00;102082.94;5060905;28;20726;-79
2022/12/05 08:24:11;;;;;;;15.63;7.90;;;;;;;4.53;100.00;102086.38;5027874;28;20063;-79
2022/12/05 08:26:38;;;;;;;12.65;7.97;;;;;;;4.55;100.00;102089.94;5069733;28;20051;-78
2022/12/05 08:29:08;;;;;;;14.82;7.45;;;;;;;4.55;100.00;102100.41;5067819;28;20044;-79
2022/12/05 08:31:43;;;;;;;15.18;7.30;;;;;;;4.53;100.00;102100.31;5066367;28;20048;-78
2022/12/05 08:34:13;;;;;;;13.32;7.60;;;;;;;4.53;100.00;102087.25;5073581;28;20036;-79
2022/12/05 08:36:40;;;;;;;14.38;8.25;;;;;;;4.54;100.00;102090.75;5060148;28;20052;-78
2022/12/05 08:39:13;;;;;;;15.73;8.25;;;;;;;4.54;100.00;102089.06;5029880;28;20044;-79
2022/12/05 08:41:42;;;;;;;14.63;8.48;;;;;;;4.55;100.00;102092.56;5029496;28;20041;-79
2022/12/05 08:44:14;;;;;;;13.18;7.55;;;;;;;4.55;100.00;102087.34;5064479;28;20497;-78
2022/12/05 08:46:45;;;;;;;17.23;8.40;;;;;;;4.56;100.00;102100.47;5046818;28;20045;-79
2022/12/05 08:49:13;;;;;;;15.05;8.50;;;;;;;4.58;100.00;102097.94;5021460;28;20052;-78
2022/12/05 08:51:41;;;;;;;13.30;8.45;;;;;;;4.58;100.00;102092.72;5027843;28;20049;-80
2022/12/05 08:54:09;;;;;;;15.23;8.77;;;;;;;4.58;100.00;102093.59;4991268;28;20045;-78
2022/12/05 08:56:37;;;;;;;15.80;8.45;;;;;;;4.59;100.00;102097.97;5022741;28;20046;-78
2022/12/05 08:59:05;;;;;;;13.57;8.52;;;;;;;4.60;100.00;102102.41;5014439;28;20053;-78
2022/12/05 09:01:37;;;;;;;15.93;9.35;;;;;;;4.60;100.00;102102.41;5007834;28;20068;-78
2022/12/05 09:04:06;;;;;;;18.17;8.95;;;;;;;4.62;100.00;102099.88;5030627;28;20049;-79
2022/12/05 09:06:34;;;;;;;28.63;9.77;;;;;;;4.62;100.00;102098.16;5010386;28;20041;-78
2022/12/05 09:09:06;;;;;;;14.35;8.13;;;;;;;4.62;100.00;102099.88;4981287;28;20059;-79
2022/12/05 09:11:39;;;;;;;18.00;8.82;;;;;;;4.63;100.00;102101.66;5033357;28;20076;-78
2022/12/05 09:14:07;;;;;;;13.90;8.82;;;;;;;4.63;100.00;102101.66;5031512;28;20041;-78
2022/12/05 09:16:38;;;;;;;15.05;9.05;;;;;;;4.64;100.00;102103.44;5014794;28;20084;-78
2022/12/05 09:19:26;;;;;;;16.67;9.48;;;;;;;4.64;100.00;102104.34;5031468;28;20042;-78
2022/12/05 09:21:54;;;;;;;16.15;8.48;;;;;;;4.63;100.00;102113.00;5021964;28;20049;-78
2022/12/05 09:24:22;;;;;;;18.67;10.02;;;;;;;4.63;100.00;102109.47;4996388;28;20060;-77
2022/12/05 09:26:49;;;;;;;14.43;8.75;;;;;;;4.64;100.00;102109.56;5008112;28;20033;-78
2022/12/05 09:29:17;;;;;;;17.88;9.05;;;;;;;4.64;100.00;102113.88;5016206;28;20043;-78
2022/12/05 09:31:47;;;;;;;17.27;9.88;;;;;;;4.63;100.00;102117.31;5016730;28;20556;-78
2022/12/05 09:34:16;;;;;;;18.15;9.27;;;;;;;4.64;100.00;102112.16;5043502;28;20045;-77
2022/12/05 09:36:50;;;;;;;14.35;9.00;;;;;;;4.63;100.00;102119.91;5017987;28;20061;-77
2022/12/05 09:39:17;;;;;;;15.18;8.43;;;;;;;4.62;100.00;102116.41;5004164;28;20057;-78
2022/12/05 09:42:09;;;;;;;18.20;8.98;;;;;;;4.61;100.00;102127.72;4991741;28;20052;-77
2022/12/05 09:44:57;;;;;;;17.02;9.02;;;;;;;4.60;100.00;102112.84;5018465;28;20042;-78
2022/12/05 09:47:41;;;;;;;14.65;8.65;;;;;;;4.59;100.00;102116.25;5009853;28;20232;-78
2022/12/05 09:50:20;;;;;;;13.52;9.18;;;;;;;4.59;100.00;102120.59;5049598;28;20049;-77
2022/12/05 09:52:59;;;;;;;14.82;8.80;;;;;;;4.58;100.00;102108.38;5041743;28;20041;-78
2022/12/05 09:55:53;;;;;;;16.80;9.90;;;;;;;4.59;100.00;102118.00;5012724;28;20057;-77
2022/12/05 09:58:26;;;;;;;14.75;8.02;;;;;;;4.58;100.00;102113.59;5016366;28;20057;-78
2022/12/05 10:01:02;;;;;;;17.90;8.80;;;;;;;4.58;100.00;102124.06;5050266;28;20140;-77
2022/12/05 10:03:39;;;;;;;12.50;8.10;;;;;;;4.56;100.00;102116.13;5041354;28;20075;-78
2022/12/05 10:06:23;;;;;;;21.00;8.90;;;;;;;4.55;100.00;102116.94;5050299;28;20048;-77
2022/12/05 10:09:27;;;;;;;13.55;8.73;;;;;;;4.56;100.00;102115.25;5039035;28;20452;-78
2022/12/05 10:12:15;;;;;;;16.95;9.35;;;;;;;4.55;100.00;102109.13;5018647;28;20040;-78
2022/12/05 10:15:10;;;;;;;12.63;8.35;;;;;;;4.57;100.00;102112.69;5042446;28;20049;-78
2022/12/05 10:17:41;;;;;;;18.65;9.60;;;;;;;4.57;100.00;102107.47;5041236;28;20134;-78
2022/12/05 10:20:26;;;;;;;14.23;8.32;;;;;;;4.58;100.00;102104.06;5045510;28;20055;-77
2022/12/05 10:23:01;;;;;;;13.95;7.72;;;;;;;4.58;100.00;102105.78;5049010;28;20037;-77
2022/12/05 10:25:32;;;;;;;14.18;7.82;;;;;;;4.57;100.00;102102.25;5048754;28;20064;-79
2022/12/05 10:28:06;;;;;;;12.75;6.75;;;;;;;4.56;100.00;102105.69;5037689;28;20041;-78
2022/12/05 10:30:35;;;;;;;12.48;7.32;;;;;;;4.55;100.00;102096.06;5041180;28;20049;-77
2022/12/05 10:33:13;;;;;;;13.00;8.75;;;;;;;4.55;100.00;102098.66;5044472;28;20072;-77
2022/12/05 10:35:42;;;;;;;12.38;7.30;;;;;;;4.58;100.00;102093.59;5048564;28;20049;-78
2022/12/05 10:38:26;;;;;;;10.65;6.53;;;;;;;4.58;100.00;102101.44;5041269;28;20044;-78
2022/12/05 10:41:00;;;;;;;13.02;6.50;;;;;;;4.60;100.00;102091.06;5022671;28;20050;-78
2022/12/05 10:43:30;;;;;;;14.50;7.25;;;;;;;4.61;100.00;102098.97;5014273;28;20044;-78
2022/12/05 10:45:59;;;;;;;13.88;7.20;;;;;;;4.62;100.00;102094.66;5055032;28;20497;-78
2022/12/05 10:48:30;;;;;;;10.23;6.65;;;;;;;4.61;100.00;102096.38;5029493;28;20083;-78
2022/12/05 10:50:58;;;;;;;;;;;;;;;4.62;100.00;102092.91;5069769;28;20051;-78
2022/12/05 10:53:38;;;;;;;11.48;6.57;;;;;;;4.62;100.00;102090.31;5053585;28;19927;-78
2022/12/05 10:56:34;;;;;;;10.75;6.22;;;;;;;4.61;100.00;102085.94;5055937;28;20421;-77
2022/12/05 10:59:02;;;;;;;9.82;5.80;;;;;;;4.62;100.00;102092.03;5021826;28;20052;-78
2022/12/05 11:01:30;;;;;;;12.45;6.55;;;;;;;4.62;100.00;102087.69;5039613;28;20972;-78
2022/12/05 11:04:00;;;;;;;10.93;5.88;;;;;;;4.63;100.00;102086.91;5059829;28;20486;-78
2022/12/05 11:06:30;;;;;;;10.32;5.95;;;;;;;4.65;100.00;102079.09;5050174;28;20048;-78
2022/12/05 11:09:04;;;;;;;10.02;6.53;;;;;;;4.63;100.00;102081.69;5061572;28;20056;-78
2022/12/05 11:11:33;;;;;;;12.82;6.78;;;;;;;4.62;100.00;102084.22;5049969;28;20173;-78
2022/12/05 11:14:25;;;;;;;12.93;6.60;;;;;;;4.61;100.00;102072.88;5028476;28;20059;-78
2022/12/05 11:16:56;;;;;;;8.43;5.72;;;;;;;4.61;100.00;102072.88;5054458;28;20549;-79
2022/12/05 11:19:35;;;;;;;12.65;6.90;;;;;;;4.61;100.00;102078.09;5030969;28;20045;-78
2022/12/05 11:22:04;;;;;;;11.38;6.10;;;;;;;4.60;100.00;102072.78;5051579;28;20051;-78
2022/12/05 11:24:34;;;;;;;11.23;5.95;;;;;;;4.59;100.00;102064.03;5062833;28;20048;-79
2022/12/05 11:27:16;;;;;;;10.50;6.17;;;;;;;4.60;100.00;102067.56;5050668;28;20040;-77
2022/12/05 11:29:58;;;;;;;9.70;6.00;;;;;;;4.60;100.00;102063.25;5061570;28;20044;-78
2022/12/05 11:32:32;;;;;;;11.02;5.43;;;;;;;4.61;100.00;102066.75;5025911;28;20059;-78
2022/12/05 11:35:12;;;;;;;13.55;5.57;;;;;;;4.62;100.00;102061.59;5059402;28;20052;-79
2022/12/05 11:37:46;;;;;;;9.48;5.57;;;;;;;4.61;100.00;102062.44;5063703;28;20044;-78
2022/12/05 11:40:25;;;;;;;9.40;5.50;;;;;;;4.62;100.00;102053.75;5053426;28;20040;-78
2022/12/05 11:43:11;;;;;;;8.63;5.38;;;;;;;4.62;100.00;102058.09;5054637;28;20036;-78
2022/12/05 11:45:38;;;;;;;10.20;6.22;;;;;;;4.61;100.00;102065.03;5048412;28;20067;-78
2022/12/05 11:48:26;;;;;;;8.98;6.25;;;;;;;4.60;100.00;102058.03;5060073;28;20049;-78
2022/12/05 11:50:56;;;;;;;11.55;5.65;;;;;;;4.59;100.00;102064.03;5042343;28;20045;-78
2022/12/05 11:53:54;;;;;;;9.40;5.60;;;;;;;4.59;100.00;102069.28;5067951;28;20694;-77